Washington Crossing, Pennsylvania
Current Conditions -  °F | °C
As of 12:53 AM on Saturday 20 Dec 2014 (Local Time) from KTTN Reporting Station
Overcast Overcast  
Wind Chill: 27°   Ceiling: 2600
Heat Index: 32°   Visibility: 10mi
Dew Point: 21°   Wind: 5mph
Humidity: 64%   Direction: 20°NNE
Pressure: 30.19"   Gusts: NA
Location:  40.29°N, 74.87°W
Report Text: KTTN 200553Z AUTO 02004KT 10SM OVC026 00/M06 A3019 RMK AO2 SLP218 T00001061 10011 21011 50003
Loading
Personal Weather Stations






























Interactive Weather Map New forecast layout! Learn more

10-Day Weather Forecast

Advertisements
Track Severe Weather on mobile